Time;durP1;ratioP1;P1;durP2;ratioP2;P2;SDS_P1;SDS_P2;PMS_P1;PMS_P2;Temp;Humidity;BMP_temperature;BMP_pressure;BME280_temperature;BME280_humidity;BME280_pressure;Samples;Min_cycle;Max_cycle;Signal;HPM_P1;HPM_P2
2022/11/01 17:44:17;;;;;;;19.00;13.45;;;20.70;81.80;;;;;;6246075;22;20094;-68
2022/11/01 17:46:44;;;;;;;28.25;18.55;;;20.70;81.30;;;;;;6219869;22;20444;-78
2022/11/01 17:49:14;;;;;;;23.92;13.48;;;20.70;81.70;;;;;;6246729;23;20004;-80
2022/11/01 17:51:41;;;;;;;23.80;12.80;;;20.60;81.40;;;;;;6222924;22;20035;-79
2022/11/01 17:54:06;;;;;;;17.52;11.75;;;20.60;81.60;;;;;;6218645;23;20520;-72
2022/11/01 17:56:32;;;;;;;22.05;12.27;;;20.60;81.90;;;;;;6218369;23;20082;-81
2022/11/01 17:58:58;;;;;;;20.38;12.68;;;20.50;82.00;;;;;;6218686;23;20004;-79
2022/11/01 18:01:24;;;;;;;22.60;12.15;;;20.50;82.30;;;;;;6246154;22;20027;-78
2022/11/01 18:03:49;;;;;;;18.13;11.68;;;20.60;83.40;;;;;;6216767;22;20289;-83
2022/11/01 18:06:16;;;;;;;18.60;12.43;;;20.60;82.50;;;;;;6245216;22;20000;-79
2022/11/01 18:08:47;;;;;;;23.10;12.85;;;20.60;82.80;;;;;;6246048;22;20063;-77
2022/11/01 18:11:33;;;;;;;20.17;12.05;;;20.50;83.00;;;;;;6217957;23;20004;-80
2022/11/01 18:14:08;;;;;;;19.83;13.68;;;20.50;83.90;;;;;;6246655;22;20012;-80
2022/11/01 18:16:49;;;;;;;23.48;12.98;;;20.50;84.20;;;;;;6219512;22;20007;-76
2022/11/01 18:19:24;;;;;;;18.35;11.45;;;20.40;84.30;;;;;;6246558;22;20004;-79
2022/11/01 18:22:18;;;;;;;17.75;11.45;;;20.40;83.90;;;;;;6219554;23;20026;-77
2022/11/01 18:24:50;;;;;;;24.25;12.90;;;20.40;84.80;;;;;;6247451;22;20416;-78
2022/11/01 18:27:22;;;;;;;19.73;12.05;;;20.30;84.00;;;;;;6218933;23;20446;-77
2022/11/01 18:29:50;;;;;;;26.25;13.18;;;20.30;84.40;;;;;;6219175;23;20383;-75
2022/11/01 18:32:34;;;;;;;20.98;14.43;;;20.30;84.80;;;;;;6219237;22;20462;-75
2022/11/01 18:35:19;;;;;;;19.65;13.73;;;20.20;84.50;;;;;;6218606;22;20016;-76
2022/11/01 18:38:09;;;;;;;24.85;14.80;;;20.30;85.50;;;;;;6245833;22;20007;-75
2022/11/01 18:40:47;;;;;;;27.08;16.80;;;20.20;85.60;;;;;;6219051;23;20445;-76
2022/11/01 18:43:13;;;;;;;23.20;16.02;;;20.20;85.10;;;;;;6246016;23;20016;-76
2022/11/01 18:45:39;;;;;;;23.27;14.85;;;20.20;85.50;;;;;;6219232;23;20333;-76
2022/11/01 18:48:18;;;;;;;19.55;14.57;;;20.10;85.60;;;;;;6246360;23;20000;-77
2022/11/01 18:50:44;;;;;;;25.00;14.70;;;20.10;86.70;;;;;;6246081;22;20004;-74
2022/11/01 18:53:18;;;;;;;17.60;13.70;;;20.10;86.20;;;;;;6245955;22;20008;-77
2022/11/01 18:55:48;;;;;;;23.85;14.25;;;20.10;86.10;;;;;;6218901;23;20000;-79
2022/11/01 18:58:20;;;;;;;23.15;15.35;;;20.00;86.20;;;;;;6218593;23;20111;-77
2022/11/01 19:01:12;;;;;;;22.70;17.02;;;20.00;86.40;;;;;;6245719;22;20050;-75
2022/11/01 19:03:38;;;;;;;24.70;15.55;;;20.00;87.50;;;;;;6246659;22;20000;-76
2022/11/01 19:06:20;;;;;;;25.42;15.35;;;20.00;86.90;;;;;;6218712;23;20314;-77
2022/11/01 19:08:55;;;;;;;24.08;15.25;;;20.00;87.70;;;;;;6218922;23;20645;-76
2022/11/01 19:11:22;;;;;;;30.50;21.98;;;20.00;87.10;;;;;;6218632;22;20004;-74
2022/11/01 19:13:49;;;;;;;25.05;17.00;;;20.00;87.20;;;;;;6218776;22;20012;-76
2022/11/01 19:16:17;;;;;;;22.05;15.35;;;20.00;86.80;;;;;;6229841;23;20004;-80
2022/11/01 19:18:45;;;;;;;29.88;21.70;;;20.00;87.10;;;;;;6255805;22;20051;-83
2022/11/01 19:21:19;;;;;;;22.00;16.95;;;19.90;87.10;;;;;;6222347;22;20004;-84
2022/11/01 19:23:53;;;;;;;25.35;16.60;;;20.00;87.20;;;;;;6246967;22;20052;-84
2022/11/01 19:26:35;;;;;;;28.08;17.05;;;20.00;88.00;;;;;;6219333;22;20000;-85
2022/11/01 19:29:24;;;;;;;25.23;16.45;;;20.00;88.20;;;;;;6246145;22;20314;-81
2022/11/01 19:31:53;;;;;;;22.27;17.63;;;20.00;87.30;;;;;;6220685;22;20010;-82
2022/11/01 19:34:24;;;;;;;24.45;16.38;;;20.00;88.10;;;;;;6219757;23;20297;-81
2022/11/01 19:36:51;;;;;;;28.13;16.80;;;19.90;87.70;;;;;;6247257;23;20001;-82
2022/11/01 19:39:36;;;;;;;26.33;15.68;;;19.90;87.90;;;;;;6246396;22;20085;-85
2022/11/01 19:42:27;;;;;;;24.05;14.68;;;19.90;87.70;;;;;;6246487;22;20000;-84
2022/11/01 19:45:15;;;;;;;22.77;14.75;;;19.90;88.10;;;;;;6219070;22;20091;-83
2022/11/01 19:47:44;;;;;;;23.75;16.45;;;19.90;87.70;;;;;;6169293;23;20062;-80
2022/11/01 19:50:26;;;;;;;24.77;15.75;;;19.80;87.40;;;;;;6245930;22;20050;-81
2022/11/01 19:52:57;;;;;;;22.88;16.17;;;19.80;87.60;;;;;;6245659;23;20058;-82
2022/11/01 19:55:35;;;;;;;24.85;17.15;;;19.70;87.60;;;;;;6245729;22;20000;-82
2022/11/01 19:58:02;;;;;;;21.98;15.98;;;19.70;88.20;;;;;;6218886;22;20004;-79
2022/11/01 20:00:28;;;;;;;23.33;16.15;;;19.70;87.90;;;;;;6245880;22;20008;-82
2022/11/01 20:02:57;;;;;;;26.33;15.55;;;19.70;88.10;;;;;;6222401;22;20043;-82
2022/11/01 20:05:35;;;;;;;24.00;16.15;;;19.70;88.00;;;;;;6247330;22;19996;-80
2022/11/01 20:08:31;;;;;;;22.55;14.60;;;19.60;87.70;;;;;;6245344;23;20000;-84
2022/11/01 20:10:56;;;;;;;28.05;17.30;;;19.70;87.80;;;;;;6219938;23;20000;-82
2022/11/01 20:13:22;;;;;;;24.98;16.50;;;19.60;87.70;;;;;;6248097;22;20018;-82
2022/11/01 20:15:48;;;;;;;27.58;17.48;;;19.60;88.00;;;;;;6250534;22;20425;-82
2022/11/01 20:18:14;;;;;;;25.08;17.85;;;19.50;88.50;;;;;;6222634;23;20066;-83
2022/11/01 20:20:43;;;;;;;32.88;19.50;;;19.50;88.10;;;;;;6255439;22;20000;-77
2022/11/01 20:23:12;;;;;;;24.95;17.73;;;19.50;88.40;;;;;;6263081;23;20023;-86
2022/11/01 20:25:38;;;;;;;23.85;15.90;;;19.40;88.30;;;;;;6251904;22;20006;-81
2022/11/01 20:28:05;;;;;;;28.88;18.95;;;19.40;88.10;;;;;;6249389;22;20004;-79
2022/11/01 20:30:31;;;;;;;26.08;18.73;;;19.40;88.00;;;;;;6220712;22;20345;-80
2022/11/01 20:32:57;;;;;;;26.25;18.70;;;19.40;88.50;;;;;;6220303;23;20036;-80
2022/11/01 20:35:22;;;;;;;34.75;21.50;;;19.40;88.90;;;;;;6247421;22;20004;-80
2022/11/01 20:37:48;;;;;;;104.18;70.05;;;19.30;88.90;;;;;;6220537;22;20012;-79
2022/11/01 20:40:14;;;;;;;48.55;34.85;;;19.30;88.80;;;;;;6220604;23;20015;-79
2022/11/01 20:42:40;;;;;;;24.80;18.80;;;19.30;89.00;;;;;;6220146;23;20302;-80
2022/11/01 20:45:06;;;;;;;26.92;18.58;;;19.30;89.00;;;;;;6246880;23;20004;-81
2022/11/01 20:47:32;;;;;;;31.13;19.45;;;19.30;89.30;;;;;;6246560;22;20030;-80
2022/11/01 20:49:59;;;;;;;25.02;18.98;;;19.20;89.00;;;;;;6247069;22;20004;-81
2022/11/01 20:52:25;;;;;;;25.77;19.45;;;19.20;89.30;;;;;;6246606;22;20000;-78
2022/11/01 20:58:46;;;;;;;33.17;19.88;;;19.00;91.00;;;;;;5123832;27;20455;-80
2022/11/01 21:01:16;;;;;;;34.92;20.67;;;19.10;90.20;;;;;;5115529;28;20045;-80
2022/11/01 21:03:42;;;;;;;27.73;19.80;;;19.10;90.20;;;;;;5110538;28;20024;-80
2022/11/01 21:06:16;;;;;;;38.65;20.65;;;19.10;90.30;;;;;;5112113;28;20031;-83
2022/11/01 21:08:45;;;;;;;25.58;19.23;;;19.00;90.30;;;;;;5092653;28;20024;-79
2022/11/01 21:11:21;;;;;;;32.60;22.33;;;19.00;90.50;;;;;;5110913;28;20044;-81
2022/11/01 21:13:49;;;;;;;35.97;20.95;;;19.00;90.80;;;;;;5101039;28;20021;-83
2022/11/01 21:16:26;;;;;;;28.67;19.85;;;19.00;90.60;;;;;;5090040;28;20141;-82
2022/11/01 21:19:02;;;;;;;27.60;20.63;;;19.00;90.60;;;;;;5088592;28;20048;-85
2022/11/01 21:21:32;;;;;;;36.10;20.52;;;19.00;90.90;;;;;;5090037;28;20032;-84
2022/11/01 21:24:00;;;;;;;28.42;20.10;;;19.00;90.90;;;;;;5091710;28;20423;-83
2022/11/01 21:26:30;;;;;;;32.05;19.58;;;19.00;91.00;;;;;;5091751;28;20024;-86
2022/11/01 21:29:14;;;;;;;32.42;20.90;;;18.90;91.10;;;;;;5088323;28;20024;-86
2022/11/01 21:31:41;;;;;;;31.52;21.75;;;18.90;91.30;;;;;;5110458;28;20361;-85
2022/11/01 21:34:09;;;;;;;30.17;21.60;;;18.80;91.50;;;;;;5092574;28;20028;-86
2022/11/01 21:36:38;;;;;;;33.70;21.50;;;18.80;91.60;;;;;;5111543;28;20110;-85
2022/11/01 21:39:19;;;;;;;29.13;21.33;;;18.80;91.70;;;;;;5095574;28;20583;-88
2022/11/01 21:41:50;;;;;;;31.05;20.83;;;18.80;92.00;;;;;;5099662;28;20028;-89
2022/11/01 21:44:39;;;;;;;34.50;20.92;;;18.70;92.00;;;;;;5101781;28;20080;-89
2022/11/01 21:47:18;;;;;;;30.83;21.92;;;18.70;92.10;;;;;;5111887;28;20028;-90
2022/11/01 21:49:44;;;;;;;32.33;22.00;;;18.70;92.00;;;;;;5113110;28;20108;-89
2022/11/01 21:52:10;;;;;;;31.90;22.33;;;18.60;92.10;;;;;;5094459;28;20023;-88
2022/11/01 21:54:37;;;;;;;37.05;22.90;;;18.60;92.10;;;;;;5111031;28;20024;-89
2022/11/01 21:57:05;;;;;;;35.78;22.60;;;18.60;92.20;;;;;;5092574;28;20143;-90
2022/11/01 21:59:31;;;;;;;36.55;23.67;;;18.60;92.30;;;;;;5112156;28;20484;-90
2022/11/01 22:02:00;;;;;;;36.03;23.42;;;18.60;92.40;;;;;;5112508;28;20380;-88
2022/11/01 22:04:28;;;;;;;38.45;23.92;;;18.50;92.60;;;;;;5093376;28;20060;-90
2022/11/01 22:06:55;;;;;;;35.88;24.75;;;18.50;92.60;;;;;;5093433;28;20046;-90
2022/11/01 22:09:21;;;;;;;32.67;22.48;;;18.40;92.70;;;;;;5084491;28;20081;-89
2022/11/01 22:11:46;;;;;;;32.50;22.55;;;18.40;92.70;;;;;;5100253;28;20024;-91
2022/11/01 22:14:12;;;;;;;36.53;21.75;;;18.40;92.80;;;;;;5098829;28;20400;-90
2022/11/01 22:16:38;;;;;;;35.22;22.88;;;18.40;92.80;;;;;;5097606;28;20028;-91
2022/11/01 22:19:05;;;;;;;34.42;22.05;;;18.40;92.70;;;;;;5097292;28;20053;-89
2022/11/01 22:21:31;;;;;;;27.20;20.73;;;18.40;92.70;;;;;;5096991;28;20464;-90
2022/11/01 22:23:57;;;;;;;32.35;23.48;;;18.30;92.70;;;;;;5079338;28;20028;-90
2022/11/01 22:26:23;;;;;;;31.65;22.05;;;18.30;92.60;;;;;;5098071;28;20036;-89
2022/11/01 22:28:50;;;;;;;29.15;20.95;;;18.30;92.60;;;;;;5080499;28;20038;-91
2022/11/01 22:31:17;;;;;;;33.92;21.38;;;18.20;92.70;;;;;;5080853;28;20028;-88
2022/11/01 22:33:43;;;;;;;32.28;20.92;;;18.20;92.60;;;;;;5098812;28;20032;-91
2022/11/01 22:36:24;;;;;;;31.13;21.15;;;18.20;92.70;;;;;;5099690;28;20042;-89
2022/11/01 22:38:53;;;;;;;32.15;20.33;;;18.20;92.60;;;;;;5100954;28;20062;-89
2022/11/01 22:41:22;;;;;;;30.40;19.65;;;18.20;92.50;;;;;;5096725;28;20009;-89
2022/11/01 22:43:50;;;;;;;31.10;20.10;;;18.10;92.50;;;;;;5110409;28;20035;-88
2022/11/01 22:46:30;;;;;;;26.70;19.73;;;18.10;92.30;;;;;;5099261;28;20020;-90
2022/11/01 22:49:19;;;;;;;28.88;19.58;;;18.10;92.40;;;;;;5100160;28;20024;-89
2022/11/01 22:51:48;;;;;;;28.85;18.90;;;18.00;92.30;;;;;;5099513;28;20028;-89
2022/11/01 22:54:39;;;;;;;27.17;19.40;;;18.00;92.10;;;;;;5099218;28;20024;-89
2022/11/01 22:57:07;;;;;;;29.95;19.38;;;18.00;92.20;;;;;;5098961;28;20052;-88
2022/11/01 22:59:44;;;;;;;29.55;20.77;;;17.90;92.10;;;;;;5101374;28;20113;-90
2022/11/01 23:02:33;;;;;;;30.70;19.63;;;17.90;92.10;;;;;;5080404;28;20052;-89
2022/11/01 23:05:05;;;;;;;25.30;19.42;;;17.90;92.00;;;;;;5097326;28;20025;-87
2022/11/01 23:07:33;;;;;;;27.88;19.30;;;17.90;92.10;;;;;;5081574;28;20032;-91
2022/11/01 23:10:04;;;;;;;33.42;20.25;;;17.80;92.10;;;;;;5079679;28;20058;-91
2022/11/01 23:15:24;;;;;;;26.95;19.50;;;17.70;92.20;;;;;;5097394;28;20127;-90
2022/11/01 23:17:50;;;;;;;29.30;18.92;;;17.70;92.20;;;;;;5079518;28;20032;-89
2022/11/01 23:20:16;;;;;;;29.08;19.08;;;17.60;92.30;;;;;;5101321;28;20078;-88
2022/11/01 23:22:41;;;;;;;29.92;19.35;;;17.60;92.40;;;;;;5104590;28;20031;-90
2022/11/01 23:25:08;;;;;;;25.13;17.20;;;17.60;92.40;;;;;;5098185;28;20027;-89
2022/11/01 23:27:34;;;;;;;26.88;17.50;;;17.50;92.40;;;;;;5079722;28;20028;-89
2022/11/01 23:30:01;;;;;;;26.58;18.05;;;17.50;92.40;;;;;;5081018;28;20388;-90
2022/11/01 23:32:28;;;;;;;27.10;17.05;;;17.40;92.30;;;;;;5081943;28;20024;-89
2022/11/01 23:35:16;;;;;;;27.70;16.65;;;17.40;92.40;;;;;;5098917;28;20024;-89
2022/11/01 23:37:42;;;;;;;28.63;17.27;;;17.40;92.40;;;;;;5098740;28;20043;-89
2022/11/01 23:40:15;;;;;;;25.80;16.05;;;17.40;92.50;;;;;;5082260;28;20020;-88
2022/11/01 23:42:41;;;;;;;30.60;16.40;;;17.40;92.30;;;;;;5079549;28;20028;-90
2022/11/01 23:45:29;;;;;;;23.35;15.45;;;17.50;92.30;;;;;;5078789;28;20119;-91
2022/11/01 23:47:55;;;;;;;26.30;15.43;;;17.50;92.20;;;;;;5097436;28;20031;-88
2022/11/01 23:50:31;;;;;;;26.80;14.65;;;17.50;92.10;;;;;;5092851;28;20020;-89
2022/11/01 23:53:03;;;;;;;25.25;15.85;;;17.60;92.00;;;;;;5116014;28;20088;-88
2022/11/01 23:55:41;;;;;;;28.40;14.82;;;17.60;91.80;;;;;;5100854;28;20028;-87
2022/11/01 23:58:16;;;;;;;23.48;15.02;;;17.50;91.70;;;;;;5100730;28;20044;-87
